Atwood, Kentucky
Current Conditions -  °F | °C
As of 5:52 PM on Wednesday 22 Oct 2014 (Local Time) from KCVG Reporting Station
Broken Clouds Broken Clouds  
Wind Chill: 52°   Ceiling: 2900
Heat Index: 52°   Visibility: 10mi
Dew Point: 39°   Wind: 6mph
Humidity: 61%   Direction: 360°N
Pressure: 30.26"   Gusts: NA
Location:  38.8354°N, 84.5143°W
Report Text: KCVG 222152Z 36005KT 10SM BKN029 11/04 A3026 RMK AO2 SLP246 T01110039
Loading
Personal Weather Stations






























Interactive Weather Map
Tropical Storm Tracking
New forecast layout! Learn more

10-Day Weather Forecast

Advertisements
Track Severe Weather on mobile